Aviation Digital Data Service (ADDS)

Output produced by METARs form (2326 UTC 19 January 2019)
found at http://www.aviationweather.gov/metar/data/
 
METAR text: EPGD 192300Z 23009KT 9999 OVC023 M01/M03 Q1017 R11/290095
Conditions at: EPGD (GDANSK/REBIECHOW, PL) observed 2300 UTC 19 January 2019
Temperature: -1.0°C (30°F)
Dewpoint: -3.0°C (27°F) [RH = 86%]
Pressure (altimeter): 30.03 inches Hg (1017.0 mb)
Winds: from the SW (230 degrees) at 10 MPH (9 knots; 4.6 m/s)
Visibility: 6 or more miles (10+ km)
Ceiling: 2300 feet AGL
Clouds: overcast cloud deck at 2300 feet AGL
Weather: no significant weather observed at this time

METAR text: EPGD 192230Z 24008KT 9999 OVC022 M01/M03 Q1017 R11/290095
Conditions at: EPGD (GDANSK/REBIECHOW, PL) observed 2230 UTC 19 January 2019
Temperature: -1.0°C (30°F)
Dewpoint: -3.0°C (27°F) [RH = 86%]
Pressure (altimeter): 30.03 inches Hg (1017.0 mb)
Winds: from the WSW (240 degrees) at 9 MPH (8 knots; 4.1 m/s)
Visibility: 6 or more miles (10+ km)
Ceiling: 2200 feet AGL
Clouds: overcast cloud deck at 2200 feet AGL
Weather: no significant weather observed at this time

Forecast for: EPGD (GDANSK/REBIECHOW, PL)
Text: TAF EPGD 191730Z 1918/2018 23010KT 9999 BKN025
Forecast period: 1800 UTC 19 January 2019 to 1800 UTC 20 January 2019
Forecast type: FROM: standard forecast or significant change
Winds: from the SW (230 degrees) at 12 MPH (10 knots; 5.1 m/s)
Visibility: 6 or more miles 10+ km)
Ceiling: 2500 feet AGL
Clouds: broken clouds at 2500 feet AGL
Weather: no significant weather forecast for this period
Text: BECMG 1918/1921 BKN010
Forecast period: 1800 UTC 19 January 2019 to 0600 UTC 20 January 2019
Forecast type: BECOMING: Conditions expected to become as follows by 2100 UTC 19 January 2019
Winds: from the SW (230 degrees) at 12 MPH (10 knots; 5.1 m/s)
Visibility: 6 or more miles 10+ km)
Ceiling: 1000 feet AGL
Clouds: broken clouds at 1000 feet AGL
Weather: no significant weather forecast for this period
Text: TEMPO 1919/2005 2000 BR BKN004
Forecast period: 1900 UTC 19 January 2019 to 0500 UTC 20 January 2019
Forecast type: TEMPORARY: The following changes expected for less than half the time period
Visibility: 1.24 miles (2.00 km)
Ceiling: 400 feet AGL
Clouds: broken clouds at 400 feet AGL
Weather: BR  (mist)
Text: BECMG 2006/2009 29010KT BKN020
Forecast period: 0600 to 1800 UTC 20 January 2019
Forecast type: BECOMING: Conditions expected to become as follows by 0900 UTC 20 January 2019
Winds: from the WNW (290 degrees) at 12 MPH (10 knots; 5.1 m/s)
Visibility: 6 or more miles 10+ km)
Ceiling: 2000 feet AGL
Clouds: broken clouds at 2000 feet AGL
Weather: no significant weather forecast for this period
Text: TEMPO 2011/2018 SHSN BKN015TCU
Forecast period: 1100 to 1800 UTC 20 January 2019
Forecast type: TEMPORARY: The following changes expected for less than half the time period
Visibility: missing
Ceiling: 1500 feet AGL
Clouds: broken clouds at 1500 feet AGL
Weather: SHSN  (snow showers)